Time;durP1;ratioP1;P1;durP2;ratioP2;P2;SDS_P1;SDS_P2;PMS_P1;PMS_P2;Temp;Humidity;BMP_temperature;BMP_pressure;BME280_temperature;BME280_humidity;BME280_pressure;Samples;Min_cycle;Max_cycle;Signal;HPM_P1;HPM_P2
2021/03/17 00:00:49;;;;;;;23.23;14.25;;;;;;;3.88;95.60;100964.66;4997399;28;20058;-75
2021/03/17 00:03:16;;;;;;;25.48;15.48;;;;;;;3.88;94.10;100968.16;4996418;28;20133;-75
2021/03/17 00:05:43;;;;;;;27.90;16.08;;;;;;;3.96;95.37;100972.44;4996739;28;20050;-76
2021/03/17 00:08:10;;;;;;;26.55;15.82;;;;;;;4.00;94.97;100977.63;4996321;28;20347;-76
2021/03/17 00:10:38;;;;;;;26.73;16.70;;;;;;;3.95;95.57;100971.56;4996598;28;20046;-76
2021/03/17 00:13:05;;;;;;;28.52;17.05;;;;;;;3.98;95.19;100973.28;4996463;28;20046;-76
2021/03/17 00:15:37;;;;;;;31.05;18.65;;;;;;;3.96;95.77;100983.84;4995473;28;20448;-75
2021/03/17 00:18:08;;;;;;;29.38;18.40;;;;;;;3.93;95.80;100970.72;4996090;28;20054;-76
2021/03/17 00:20:35;;;;;;;32.35;20.08;;;;;;;3.97;95.69;100976.81;4996395;28;20058;-75
2021/03/17 00:23:02;;;;;;;34.30;19.55;;;;;;;3.95;95.26;100979.47;5011463;28;20081;-76
2021/03/17 00:25:31;;;;;;;34.17;21.60;;;;;;;3.87;95.80;100970.84;4996063;28;20062;-75
2021/03/17 00:28:01;;;;;;;36.85;21.45;;;;;;;3.96;95.79;100990.94;4995142;28;20053;-75
2021/03/17 00:30:29;;;;;;;33.60;19.58;;;;;;;3.90;95.96;100990.16;4995379;28;20054;-76
2021/03/17 00:32:59;;;;;;;33.45;20.38;;;;;;;3.97;96.03;101003.22;4995785;28;20057;-76
2021/03/17 00:35:28;;;;;;;34.00;21.38;;;;;;;3.94;96.04;100998.88;4994934;28;20050;-76
2021/03/17 00:37:55;;;;;;;36.58;21.60;;;;;;;3.96;96.17;101001.50;4995790;28;20429;-76
2021/03/17 00:40:22;;;;;;;37.25;22.65;;;;;;;4.04;96.02;101007.50;4995817;28;20415;-76
2021/03/17 00:42:49;;;;;;;35.03;22.27;;;;;;;3.91;95.95;101007.72;4996040;28;20348;-75
2021/03/17 00:45:16;;;;;;;36.20;21.77;;;;;;;3.93;96.41;101019.13;4996041;28;20149;-75
2021/03/17 00:47:42;;;;;;;36.33;21.25;;;;;;;3.84;96.69;101024.59;4995676;28;20054;-75
2021/03/17 00:50:11;;;;;;;36.33;23.15;;;;;;;3.80;96.88;101022.91;4995686;28;20343;-75
2021/03/17 00:52:37;;;;;;;35.58;21.10;;;;;;;3.85;96.85;101031.63;4994542;28;20058;-76
2021/03/17 00:55:05;;;;;;;38.67;22.58;;;;;;;3.81;96.59;101032.56;4994562;28;20054;-75
2021/03/17 00:57:31;;;;;;;32.42;19.80;;;;;;;3.84;96.54;101034.28;4995785;28;20341;-76
2021/03/17 00:59:57;;;;;;;31.88;19.60;;;;;;;3.77;96.94;101029.09;5038972;28;20050;-75
2021/03/17 01:02:24;;;;;;;32.85;19.80;;;;;;;3.74;96.94;101033.56;5014971;28;20050;-75
2021/03/17 01:04:50;;;;;;;27.13;17.08;;;;;;;3.74;96.60;101033.56;5015387;28;20050;-75
2021/03/17 01:07:17;;;;;;;32.83;19.77;;;;;;;3.66;97.31;101031.94;5018556;28;20108;-75
2021/03/17 01:09:45;;;;;;;28.80;18.10;;;;;;;3.75;97.53;101035.31;5019518;28;20133;-76
2021/03/17 01:12:13;;;;;;;30.25;17.38;;;;;;;3.72;97.16;101030.09;5019112;28;20107;-76
2021/03/17 01:14:42;;;;;;;23.25;14.88;;;;;;;3.84;97.07;101031.63;5019489;28;20060;-77
2021/03/17 01:17:09;;;;;;;26.70;17.67;;;;;;;3.79;97.57;101031.72;5019098;28;20373;-77
2021/03/17 01:19:35;;;;;;;23.13;16.25;;;;;;;3.77;97.21;101033.53;5018879;28;20064;-76
2021/03/17 01:22:03;;;;;;;26.67;16.65;;;;;;;3.74;96.99;101041.50;5018972;28;20497;-77
2021/03/17 01:24:30;;;;;;;23.50;15.50;;;;;;;3.75;97.12;101045.88;5018089;28;20054;-76
2021/03/17 01:26:57;;;;;;;24.27;15.88;;;;;;;3.69;96.98;101043.38;5019166;28;20053;-77
2021/03/17 01:29:23;;;;;;;22.42;14.70;;;;;;;3.64;97.06;101033.75;5018953;28;20054;-74
2021/03/17 01:31:50;;;;;;;19.05;13.80;;;;;;;3.55;97.08;101027.75;5020848;28;20050;-75
2021/03/17 01:34:16;;;;;;;24.52;15.25;;;;;;;3.59;97.64;101038.25;5019522;28;20053;-76
2021/03/17 01:36:44;;;;;;;18.42;12.73;;;;;;;3.57;97.01;101047.97;5019263;28;20060;-75
2021/03/17 01:39:11;;;;;;;15.68;11.02;;;;;;;3.48;96.33;101042.84;5017609;28;20072;-75
2021/03/17 01:41:37;;;;;;;17.38;10.77;;;;;;;3.40;96.83;101046.47;5018895;28;20355;-75
2021/03/17 01:44:04;;;;;;;15.30;10.43;;;;;;;3.48;96.73;101053.41;5018737;28;20060;-75
2021/03/17 01:46:31;;;;;;;15.75;10.65;;;;;;;3.46;97.00;101060.47;5018921;28;20104;-75
2021/03/17 01:48:57;;;;;;;15.52;10.70;;;;;;;3.37;96.67;101051.81;5018398;28;20145;-76
2021/03/17 01:51:24;;;;;;;16.60;10.98;;;;;;;3.44;97.29;101063.16;5050508;28;20060;-75
2021/03/17 01:53:50;;;;;;;16.50;11.23;;;;;;;3.47;97.43;101064.84;5018624;28;20050;-75
2021/03/17 01:56:16;;;;;;;16.10;10.85;;;;;;;3.52;97.64;101068.28;5018501;28;20061;-76
2021/03/17 01:58:45;;;;;;;15.95;10.82;;;;;;;3.48;96.96;101074.53;5016813;28;20058;-76
2021/03/17 02:01:11;;;;;;;15.60;10.93;;;;;;;3.53;97.30;101072.66;4998609;28;20332;-75
2021/03/17 02:03:38;;;;;;;17.95;12.80;;;;;;;3.56;97.25;101067.34;4997456;28;20100;-76
2021/03/17 02:06:05;;;;;;;18.40;12.90;;;;;;;3.46;97.70;101050.78;4999049;28;20061;-75
2021/03/17 02:08:34;;;;;;;25.65;17.42;;;;;;;3.51;96.89;101064.78;4998817;28;20053;-74
2021/03/17 02:11:01;;;;;;;29.67;19.73;;;;;;;3.48;97.33;101063.97;4998543;28;20053;-75
2021/03/17 02:13:36;;;;;;;25.20;19.05;;;;;;;3.55;97.42;101060.31;5000150;28;20050;-75
2021/03/17 02:16:26;;;;;;;27.73;19.85;;;;;;;3.46;96.64;101060.47;5006271;28;20068;-74
2021/03/17 02:19:16;;;;;;;29.52;20.05;;;;;;;3.49;97.15;101063.06;5004547;28;20050;-75
2021/03/17 02:22:20;;;;;;;25.85;17.65;;;;;;;3.50;97.83;101072.72;5008014;28;20053;-75
2021/03/17 02:25:01;;;;;;;20.05;14.52;;;;;;;3.48;97.55;101079.81;4998006;28;20112;-75
2021/03/17 02:28:08;;;;;;;18.17;12.57;;;;;;;3.46;96.93;101076.28;4998781;28;20057;-75
2021/03/17 02:30:55;;;;;;;17.85;12.27;;;;;;;3.47;97.05;101080.69;4998300;28;20410;-75
2021/03/17 02:34:07;;;;;;;16.33;12.05;;;;;;;3.55;97.20;101091.13;4997825;28;20089;-76
2021/03/17 02:36:39;;;;;;;15.43;10.40;;;;;;;3.52;96.69;101086.75;4998173;28;20507;-75
2021/03/17 02:39:19;;;;;;;14.88;9.65;;;;;;;3.35;96.64;101071.19;4998012;28;20448;-76
2021/03/17 02:41:52;;;;;;;14.05;10.35;;;;;;;3.45;96.52;101093.03;4998498;28;20050;-75
2021/03/17 02:44:22;;;;;;;11.57;8.75;;;;;;;3.38;96.73;101087.84;4998224;28;20141;-75
2021/03/17 02:46:49;;;;;;;11.23;9.15;;;;;;;3.48;97.24;101100.91;4997924;28;20388;-75
2021/03/17 02:49:21;;;;;;;13.75;9.93;;;;;;;3.43;96.95;101100.97;4980829;28;20054;-75
2021/03/17 02:51:55;;;;;;;11.27;9.00;;;;;;;3.40;96.35;101104.53;4997860;28;20439;-77
2021/03/17 02:54:23;;;;;;;12.88;8.93;;;;;;;3.33;96.52;101094.97;4997684;28;20046;-76
2021/03/17 02:56:55;;;;;;;10.45;8.57;;;;;;;3.18;96.53;101092.56;4997870;28;20054;-76
2021/03/17 02:59:23;;;;;;;9.38;7.47;;;;;;;3.31;96.31;101104.69;4996579;28;20356;-76
2021/03/17 03:01:51;;;;;;;9.93;8.13;;;;;;;3.31;96.41;101102.03;4997638;28;20144;-76
2021/03/17 03:04:19;;;;;;;10.43;7.45;;;;;;;3.30;96.00;101107.34;4998756;28;20078;-76
2021/03/17 03:06:48;;;;;;;10.30;7.82;;;;;;;3.27;95.86;101113.53;4998477;28;20112;-76
2021/03/17 03:09:17;;;;;;;9.15;7.07;;;;;;;3.28;95.68;101109.13;5000173;28;20058;-76
2021/03/17 03:11:44;;;;;;;14.17;7.97;;;;;;;3.18;96.00;101098.72;4998803;28;20097;-77
2021/03/17 03:14:12;;;;;;;10.85;7.53;;;;;;;3.34;95.97;101112.56;4980382;28;20475;-75
2021/03/17 03:16:40;;;;;;;10.38;7.63;;;;;;;3.28;95.74;101107.38;4997393;28;20085;-77
2021/03/17 03:19:08;;;;;;;8.95;7.18;;;;;;;3.32;95.72;101116.97;4997448;28;20395;-76
2021/03/17 03:21:35;;;;;;;10.07;8.00;;;;;;;3.33;96.15;101113.44;4997839;28;20050;-76
2021/03/17 03:24:03;;;;;;;12.23;8.35;;;;;;;3.33;96.06;101100.25;4998435;28;20057;-77
2021/03/17 03:26:32;;;;;;;11.02;8.38;;;;;;;3.43;96.36;101108.88;4996888;28;20051;-76
2021/03/17 03:28:59;;;;;;;10.57;8.00;;;;;;;3.50;95.67;101104.41;4996020;28;20387;-76
2021/03/17 03:31:26;;;;;;;8.57;7.05;;;;;;;3.52;94.95;101107.88;4995982;28;20076;-75
2021/03/17 03:33:52;;;;;;;7.72;6.20;;;;;;;3.48;94.58;101104.41;4980215;28;20054;-75
2021/03/17 03:36:19;;;;;;;9.65;6.78;;;;;;;3.45;94.86;101101.84;4996145;28;20073;-76
2021/03/17 03:38:46;;;;;;;10.30;6.22;;;;;;;3.43;95.30;101110.66;4997000;28;20463;-76
2021/03/17 03:41:14;;;;;;;8.52;6.68;;;;;;;3.36;94.56;101117.81;4996724;28;20512;-76
2021/03/17 03:43:40;;;;;;;12.18;7.95;;;;;;;3.30;94.97;101110.84;4995890;28;20065;-77
2021/03/17 03:46:06;;;;;;;9.63;7.40;;;;;;;3.26;95.47;101115.31;4996621;28;20058;-76
2021/03/17 03:48:36;;;;;;;9.65;7.50;;;;;;;3.24;96.15;101097.75;4995608;28;20129;-76
2021/03/17 03:51:04;;;;;;;11.02;7.80;;;;;;;3.29;95.87;101103.84;4996773;28;20053;-77
2021/03/17 03:53:36;;;;;;;10.30;8.05;;;;;;;3.23;96.02;101102.16;4995988;28;20050;-76
2021/03/17 03:56:09;;;;;;;15.63;8.65;;;;;;;3.27;96.16;101102.97;4996461;28;20050;-75
2021/03/17 03:59:18;;;;;;;10.95;8.05;;;;;;;3.26;96.46;101098.59;4997191;28;20054;-76
2021/03/17 04:01:54;;;;;;;11.20;7.68;;;;;;;3.24;97.04;101095.13;5016062;28;20096;-75
2021/03/17 04:04:28;;;;;;;12.40;8.75;;;;;;;3.26;96.67;101093.31;5016032;28;20054;-76
2021/03/17 04:06:56;;;;;;;12.68;8.60;;;;;;;3.25;97.00;101094.22;5015995;28;20046;-76
2021/03/17 04:09:29;;;;;;;12.57;9.30;;;;;;;3.20;96.92;101096.06;5014899;28;20374;-76
2021/03/17 04:12:02;;;;;;;12.52;8.85;;;;;;;3.25;97.18;101099.50;5016352;28;20050;-76
2021/03/17 04:14:32;;;;;;;13.20;8.63;;;;;;;3.23;97.60;101101.28;5015816;28;20056;-77
2021/03/17 04:17:27;;;;;;;13.82;9.35;;;;;;;3.21;97.90;101097.81;5015908;28;20100;-76
2021/03/17 04:20:15;;;;;;;15.50;10.10;;;;;;;3.18;97.77;101108.41;5013697;28;20058;-77
2021/03/17 04:22:43;;;;;;;15.45;10.77;;;;;;;3.21;97.77;101109.22;5015977;28;20112;-76
2021/03/17 04:25:12;;;;;;;15.10;10.55;;;;;;;3.10;97.58;101108.50;5015750;28;20093;-75
2021/03/17 04:27:42;;;;;;;16.35;9.73;;;;;;;3.16;97.53;101118.97;5014476;28;20061;-76
2021/03/17 04:30:10;;;;;;;14.27;9.50;;;;;;;3.13;97.67;101124.31;5015915;28;20057;-76
2021/03/17 04:32:41;;;;;;;13.40;8.85;;;;;;;3.08;97.49;101123.50;5014904;28;20119;-76
2021/03/17 04:35:10;;;;;;;12.63;8.80;;;;;;;3.00;97.33;101126.25;5016441;28;20054;-76
2021/03/17 04:37:39;;;;;;;18.35;11.23;;;;;;;2.94;97.45;101119.28;5015735;28;20049;-75
2021/03/17 04:40:07;;;;;;;13.93;8.73;;;;;;;3.05;97.58;101140.22;5014236;28;20061;-76
2021/03/17 04:42:34;;;;;;;14.90;9.82;;;;;;;3.04;98.06;101122.66;5017183;28;20080;-75
2021/03/17 04:45:03;;;;;;;12.73;9.25;;;;;;;3.03;97.93;101120.03;5028286;28;20053;-74
2021/03/17 04:47:31;;;;;;;12.90;9.73;;;;;;;3.05;97.45;101118.28;5028207;28;20065;-75
2021/03/17 04:49:58;;;;;;;12.68;8.43;;;;;;;3.03;97.15;101126.19;5015701;28;20065;-75
2021/03/17 04:52:25;;;;;;;13.02;8.73;;;;;;;3.05;97.69;101134.94;5014949;28;20347;-76
2021/03/17 04:54:53;;;;;;;12.18;9.50;;;;;;;3.07;97.84;101129.66;5014536;28;20454;-76
2021/03/17 04:57:23;;;;;;;14.70;9.88;;;;;;;3.02;98.07;101128.84;5015315;28;20404;-76
2021/03/17 04:59:51;;;;;;;12.73;9.97;;;;;;;3.05;98.55;101120.91;5004798;28;20356;-76
2021/03/17 05:02:22;;;;;;;11.30;9.20;;;;;;;3.14;98.36;101138.38;4995470;28;20137;-76
2021/03/17 05:04:48;;;;;;;12.13;9.32;;;;;;;3.04;97.90;101138.50;4994524;28;20403;-76
2021/03/17 05:07:17;;;;;;;12.80;10.23;;;;;;;2.99;98.44;101135.91;4995539;28;20054;-76
2021/03/17 05:09:44;;;;;;;14.40;10.32;;;;;;;3.06;98.59;101141.13;4995544;28;20688;-75
2021/03/17 05:12:13;;;;;;;14.05;10.02;;;;;;;3.07;98.77;101141.09;4994426;28;20061;-76
2021/03/17 05:14:39;;;;;;;13.35;10.23;;;;;;;3.04;99.01;101137.63;4995719;28;20046;-76
2021/03/17 05:17:08;;;;;;;12.65;10.10;;;;;;;3.08;99.33;101140.19;4995247;28;20463;-77
2021/03/17 05:19:36;;;;;;;14.98;11.45;;;;;;;3.02;98.30;101139.41;4995671;28;20054;-75
2021/03/17 05:22:05;;;;;;;14.57;11.32;;;;;;;2.98;98.89;101138.56;4994376;28;20502;-74
2021/03/17 05:24:32;;;;;;;16.63;11.32;;;;;;;3.01;98.69;101148.22;4995610;28;20054;-74
2021/03/17 05:27:02;;;;;;;13.95;11.10;;;;;;;2.98;98.90;101136.81;4995399;28;20063;-79
2021/03/17 05:29:28;;;;;;;14.48;11.43;;;;;;;3.01;98.45;101140.28;4995478;28;20050;-78
2021/03/17 05:31:55;;;;;;;15.10;12.13;;;;;;;2.91;99.02;101129.88;4995464;28;20062;-76
2021/03/17 05:34:23;;;;;;;17.20;13.35;;;;;;;2.98;99.29;101146.47;5000809;28;20060;-76
2021/03/17 05:36:49;;;;;;;17.38;13.20;;;;;;;3.02;99.64;101153.47;5020199;28;20058;-77
2021/03/17 05:39:16;;;;;;;18.52;14.80;;;;;;;3.06;99.30;101157.78;5033003;28;20057;-76
2021/03/17 05:41:42;;;;;;;20.58;14.85;;;;;;;3.08;99.60;101163.94;5022788;28;20057;-77
2021/03/17 05:44:10;;;;;;;16.90;14.20;;;;;;;3.05;100.00;101165.75;5019341;28;20112;-75
2021/03/17 05:46:37;;;;;;;17.15;13.48;;;;;;;3.09;99.46;101156.88;5034784;28;20071;-75
2021/03/17 05:49:04;;;;;;;19.85;14.82;;;;;;;3.04;99.34;101162.22;5033210;28;20439;-74
2021/03/17 05:51:31;;;;;;;20.25;14.50;;;;;;;3.03;99.70;101163.13;5033884;28;20045;-75
2021/03/17 05:53:58;;;;;;;23.75;15.95;;;;;;;2.97;100.00;101156.19;5038567;28;20139;-77
2021/03/17 05:56:26;;;;;;;20.92;16.35;;;;;;;2.97;99.87;101169.38;5024025;28;20089;-77
2021/03/17 05:58:55;;;;;;;23.70;14.57;;;;;;;2.98;99.97;101155.28;5018289;28;20088;-79
2021/03/17 06:01:22;;;;;;;19.15;14.30;;;;;;;3.00;100.00;101165.81;5020074;28;20049;-78
2021/03/17 06:03:49;;;;;;;21.42;14.73;;;;;;;2.85;100.00;101140.50;5013824;28;20058;-77
2021/03/17 06:06:18;;;;;;;22.77;14.77;;;;;;;3.00;99.94;101160.53;4998938;28;20133;-78
2021/03/17 06:08:47;;;;;;;22.58;15.68;;;;;;;2.98;99.79;101157.03;4998992;28;20061;-76
2021/03/17 06:11:17;;;;;;;20.67;15.23;;;;;;;2.90;99.43;101149.25;4998453;28;20097;-75
2021/03/17 06:13:49;;;;;;;24.42;14.63;;;;;;;2.91;100.00;101150.09;5011085;28;20328;-75
2021/03/17 06:16:20;;;;;;;19.10;14.48;;;;;;;2.98;99.69;101162.31;5038450;28;20108;-75
2021/03/17 06:18:55;;;;;;;20.15;14.70;;;;;;;2.94;99.53;101163.25;5037850;28;20506;-74
2021/03/17 06:21:22;;;;;;;22.55;15.30;;;;;;;2.89;100.00;101162.44;5037763;28;20053;-70
2021/03/17 06:23:50;;;;;;;23.92;15.70;;;;;;;2.92;100.00;101160.63;5036296;28;20061;-72
2021/03/17 06:26:17;;;;;;;25.95;16.67;;;;;;;2.94;100.00;101165.91;5018062;28;20053;-73
2021/03/17 06:28:46;;;;;;;25.45;16.83;;;;;;;2.94;100.00;101157.97;5017962;28;20057;-76
2021/03/17 06:31:18;;;;;;;25.40;17.13;;;;;;;2.98;100.00;101164.94;5017818;28;20054;-75
2021/03/17 06:33:44;;;;;;;23.10;15.57;;;;;;;3.00;100.00;101168.44;5018844;28;20056;-74
2021/03/17 06:36:15;;;;;;;20.90;15.77;;;;;;;2.99;100.00;101162.28;5016723;28;20050;-75
2021/03/17 06:38:42;;;;;;;20.52;14.55;;;;;;;2.98;100.00;101165.84;5016990;28;20435;-73
2021/03/17 06:41:10;;;;;;;21.30;15.98;;;;;;;2.93;100.00;101140.38;5017461;28;20362;-74
2021/03/17 06:43:44;;;;;;;19.25;15.00;;;;;;;3.06;100.00;101151.66;5013139;28;20050;-76
2021/03/17 06:46:13;;;;;;;25.08;15.82;;;;;;;3.04;100.00;101146.41;5003710;28;20047;-77
2021/03/17 06:48:59;;;;;;;20.98;15.05;;;;;;;3.08;100.00;101142.84;4997881;28;20424;-73
2021/03/17 06:51:30;;;;;;;20.60;14.95;;;;;;;2.98;99.62;101130.66;5000086;28;20051;-74
2021/03/17 06:54:01;;;;;;;22.33;15.80;;;;;;;3.05;99.78;101145.50;5015381;28;20046;-70
2021/03/17 06:56:28;;;;;;;;;;;;;;;3.08;100.00;101140.19;5016541;28;20052;-72
2021/03/17 06:59:05;;;;;;;21.58;15.68;;;;;;;3.10;100.00;101143.69;5007231;28;19925;-75
2021/03/17 07:01:37;;;;;;;23.52;15.43;;;;;;;3.18;100.00;101140.06;5015285;28;20053;-76
2021/03/17 07:04:07;;;;;;;21.05;14.43;;;;;;;3.21;99.98;101145.31;5016365;28;20073;-78
2021/03/17 07:06:35;;;;;;;20.58;15.82;;;;;;;3.20;99.95;101143.53;5016911;28;20077;-77
2021/03/17 07:09:25;;;;;;;21.63;16.00;;;;;;;3.19;100.00;101147.06;5017310;28;20080;-73
2021/03/17 07:12:08;;;;;;;20.23;15.00;;;;;;;3.19;99.83;101158.50;5026708;28;20052;-74
2021/03/17 07:14:42;;;;;;;21.98;14.98;;;;;;;3.16;100.00;101155.03;5030778;28;20518;-76
2021/03/17 07:17:24;;;;;;;21.30;15.65;;;;;;;3.17;100.00;101151.50;5028267;28;20085;-75
2021/03/17 07:19:51;;;;;;;20.00;14.70;;;;;;;3.14;100.00;101133.09;5017593;28;20050;-76
2021/03/17 07:22:17;;;;;;;21.77;16.13;;;;;;;3.21;100.00;101146.16;5017057;28;20054;-74
2021/03/17 07:24:46;;;;;;;23.13;15.73;;;;;;;3.08;100.00;101113.81;5015895;28;20081;-77
2021/03/17 07:27:22;;;;;;;21.83;14.75;;;;;;;3.26;100.00;101143.44;5017174;28;20054;-75
2021/03/17 07:29:57;;;;;;;20.98;15.35;;;;;;;3.23;100.00;101148.78;5014711;28;20046;-75
2021/03/17 07:33:13;;;;;;;23.30;15.50;;;;;;;3.25;100.00;101139.06;5013282;28;20078;-78
2021/03/17 07:35:40;;;;;;;23.60;15.40;;;;;;;3.40;100.00;101154.66;4994543;28;20042;-76
2021/03/17 07:38:15;;;;;;;18.73;15.20;;;;;;;3.36;100.00;101149.47;5017989;28;20046;-73
2021/03/17 07:40:46;;;;;;;20.10;14.13;;;;;;;3.40;100.00;101152.03;5013929;28;20057;-77
2021/03/17 07:43:13;;;;;;;20.08;14.63;;;;;;;3.41;99.99;101152.91;5016406;28;20077;-76
2021/03/17 07:45:40;;;;;;;23.50;15.60;;;;;;;3.37;100.00;101138.91;5014790;28;20418;-77
2021/03/17 07:48:09;;;;;;;21.65;16.42;;;;;;;3.44;100.00;101152.00;5015190;28;20735;-78
2021/03/17 07:50:38;;;;;;;21.27;14.57;;;;;;;3.55;100.00;101152.72;5014872;28;20049;-77
2021/03/17 07:53:08;;;;;;;19.98;14.63;;;;;;;3.54;100.00;101150.94;5019146;28;20057;-77
2021/03/17 07:55:38;;;;;;;20.05;14.48;;;;;;;3.53;100.00;101154.47;5039301;28;20420;-77
2021/03/17 07:58:06;;;;;;;21.08;15.73;;;;;;;3.57;100.00;101169.41;5014630;28;20057;-77
2021/03/17 08:00:34;;;;;;;19.08;14.30;;;;;;;3.45;100.00;101154.63;4998941;28;20054;-78
2021/03/17 08:03:00;;;;;;;23.33;15.88;;;;;;;3.54;100.00;101177.34;4996624;28;20046;-77
2021/03/17 08:05:29;;;;;;;20.83;15.55;;;;;;;3.53;100.00;101186.16;4995612;28;20050;-76
2021/03/17 08:07:56;;;;;;;20.40;15.68;;;;;;;3.48;100.00;101180.97;5028067;28;20061;-75
2021/03/17 08:10:23;;;;;;;24.52;16.17;;;;;;;3.50;100.00;101170.38;4996329;28;20141;-76
2021/03/17 08:12:50;;;;;;;25.55;17.80;;;;;;;3.55;100.00;101180.88;4996430;28;20047;-76
2021/03/17 08:15:17;;;;;;;28.10;19.08;;;;;;;3.51;100.00;101175.66;4994862;28;20066;-75
2021/03/17 08:17:45;;;;;;;26.52;18.80;;;;;;;3.55;100.00;101171.19;5011145;28;20058;-77
2021/03/17 08:20:23;;;;;;;26.83;17.90;;;;;;;3.63;100.00;101171.94;5017383;28;20380;-77
2021/03/17 08:22:51;;;;;;;31.85;20.05;;;;;;;3.43;100.00;101148.47;5015370;28;20041;-76
2021/03/17 08:25:41;;;;;;;31.30;19.88;;;;;;;3.65;100.00;101172.78;5026547;28;20699;-75
2021/03/17 08:28:22;;;;;;;33.15;19.35;;;;;;;3.77;100.00;101162.94;5034369;28;20057;-75
2021/03/17 08:30:50;;;;;;;23.35;17.70;;;;;;;3.87;100.00;101166.28;5035423;28;20507;-77
2021/03/17 08:33:36;;;;;;;25.85;17.05;;;;;;;3.83;100.00;101175.16;5035457;28;20049;-80
2021/03/17 08:36:15;;;;;;;26.33;17.58;;;;;;;3.86;100.00;101175.97;5034001;28;20072;-75
2021/03/17 08:38:53;;;;;;;21.90;15.65;;;;;;;3.85;100.00;101158.38;5035560;28;20092;-77
2021/03/17 08:41:46;;;;;;;22.48;15.27;;;;;;;3.87;100.00;101167.13;5033542;28;20051;-76
2021/03/17 08:44:18;;;;;;;25.20;15.63;;;;;;;3.85;100.00;101163.66;5033541;28;20061;-76
2021/03/17 08:46:46;;;;;;;15.60;11.57;;;;;;;3.87;99.01;101172.41;5033512;28;20136;-78
2021/03/17 08:49:14;;;;;;;17.27;12.57;;;;;;;3.80;98.67;101178.69;5033656;28;20053;-78
2021/03/17 08:51:47;;;;;;;16.40;12.20;;;;;;;3.86;99.17;101175.97;5033132;28;20136;-77
2021/03/17 08:54:37;;;;;;;15.52;11.20;;;;;;;3.87;98.54;101175.06;5034903;28;20049;-78
2021/03/17 08:57:05;;;;;;;17.05;12.23;;;;;;;3.89;99.12;101159.19;5034181;28;20128;-78
2021/03/17 08:59:49;;;;;;;13.30;10.30;;;;;;;3.90;98.34;101172.38;5027069;28;20328;-79
2021/03/17 09:02:25;;;;;;;12.77;10.70;;;;;;;4.02;98.25;101181.88;5015439;28;20359;-78
2021/03/17 09:04:54;;;;;;;14.77;10.82;;;;;;;4.06;98.47;101182.69;5015365;28;20096;-79
2021/03/17 09:07:22;;;;;;;17.30;12.07;;;;;;;4.06;98.14;101182.69;5015464;28;20061;-78
2021/03/17 09:10:10;;;;;;;15.55;11.02;;;;;;;4.02;98.98;101186.25;5015291;28;20057;-80
2021/03/17 09:12:36;;;;;;;15.90;11.75;;;;;;;4.06;99.92;101186.22;5015735;28;20054;-80
2021/03/17 09:15:15;;;;;;;13.13;9.15;;;;;;;4.05;98.09;101180.94;5015722;28;20137;-80
2021/03/17 09:17:51;;;;;;;10.48;8.55;;;;;;;4.10;98.40;101187.03;5015735;28;20060;-78
2021/03/17 09:20:20;;;;;;;8.35;6.28;;;;;;;4.05;97.95;101194.16;5015450;28;20137;-78
2021/03/17 09:22:49;;;;;;;7.20;6.40;;;;;;;4.04;97.29;101192.41;5015679;28;20049;-77
2021/03/17 09:25:25;;;;;;;7.13;6.30;;;;;;;4.14;97.98;101180.75;5014582;28;20050;-76
2021/03/17 09:27:54;;;;;;;9.15;7.22;;;;;;;4.31;97.87;101176.97;5019526;28;20076;-76
2021/03/17 09:30:24;;;;;;;8.13;6.70;;;;;;;4.50;97.85;101188.06;5024383;28;20756;-77
2021/03/17 09:32:58;;;;;;;8.88;6.82;;;;;;;4.58;97.17;101185.28;5023465;28;20093;-78
2021/03/17 09:35:26;;;;;;;6.43;5.80;;;;;;;4.65;96.35;101186.91;5009641;28;20050;-77
2021/03/17 09:38:05;;;;;;;7.80;7.00;;;;;;;4.67;96.81;101185.09;5035653;28;20080;-76
2021/03/17 09:40:40;;;;;;;7.03;4.85;;;;;;;4.79;95.89;101177.81;5028764;28;20058;-79
2021/03/17 09:43:22;;;;;;;6.93;4.60;;;;;;;4.65;94.86;101189.53;5019307;28;20061;-75
2021/03/17 09:45:48;;;;;;;5.55;4.90;;;;;;;4.55;93.87;101174.75;5019380;28;20057;-75
2021/03/17 09:48:17;;;;;;;6.07;4.60;;;;;;;4.52;94.67;101186.25;5023757;28;20050;-75
2021/03/17 09:50:46;;;;;;;6.97;3.85;;;;;;;4.44;95.06;101186.41;5025390;28;20054;-76
2021/03/17 09:53:15;;;;;;;7.57;4.03;;;;;;;4.21;96.12;101184.19;5023106;28;20133;-78
2021/03/17 09:55:42;;;;;;;4.65;3.15;;;;;;;4.16;96.16;101200.13;5019231;28;20394;-78
2021/03/17 09:58:11;;;;;;;3.38;2.60;;;;;;;4.07;95.51;101208.19;5018106;28;20052;-77
2021/03/17 10:00:38;;;;;;;5.53;2.70;;;;;;;3.93;96.15;101209.28;5019162;28;20058;-75
2021/03/17 10:03:12;;;;;;;6.65;2.22;;;;;;;3.97;96.24;101203.97;5018357;28;20042;-75
2021/03/17 10:05:39;;;;;;;2.75;2.00;;;;;;;4.16;95.63;101223.03;5018697;28;20065;-75
2021/03/17 10:08:07;;;;;;;3.67;1.80;;;;;;;4.11;95.60;101212.53;5018513;28;20057;-76
2021/03/17 10:10:34;;;;;;;3.33;1.52;;;;;;;3.95;95.40;101211.91;5018284;28;20061;-75
2021/03/17 10:13:01;;;;;;;2.20;1.65;;;;;;;3.90;93.49;101198.81;5034807;28;20137;-74
2021/03/17 10:15:28;;;;;;;3.50;1.60;;;;;;;3.96;94.91;101215.44;5019755;28;20100;-80
2021/03/17 10:17:57;;;;;;;2.35;1.52;;;;;;;3.75;94.67;101212.22;5019708;28;20092;-76
2021/03/17 10:20:27;;;;;;;2.38;1.80;;;;;;;3.71;95.36;101213.19;5019182;28;20069;-75
2021/03/17 10:23:00;;;;;;;3.35;2.50;;;;;;;3.84;96.53;101200.66;5018538;28;20227;-78
2021/03/17 10:25:29;;;;;;;5.40;1.95;;;;;;;4.01;95.17;101206.53;5016970;28;20104;-77
2021/03/17 10:28:09;;;;;;;3.88;2.10;;;;;;;4.07;93.43;101190.59;5016760;28;20108;-78
2021/03/17 10:30:40;;;;;;;3.83;2.05;;;;;;;4.23;92.91;101200.88;5017944;28;20065;-78
2021/03/17 10:33:11;;;;;;;3.75;2.08;;;;;;;4.39;91.74;101184.72;5017104;28;20077;-76
2021/03/17 10:35:38;;;;;;;6.80;1.80;;;;;;;4.25;91.99;101182.38;5016966;28;20061;-74
2021/03/17 10:38:07;;;;;;;2.80;1.90;;;;;;;4.18;92.00;101194.78;5016474;28;20053;-78
2021/03/17 10:40:35;;;;;;;2.00;1.50;;;;;;;4.22;91.24;101209.72;5017012;28;20062;-77
2021/03/17 10:43:10;;;;;;;8.10;1.70;;;;;;;4.40;90.97;101203.22;5015134;28;20050;-78
2021/03/17 10:45:49;;;;;;;6.78;2.28;;;;;;;4.58;91.72;101195.84;5017923;28;20058;-78
2021/03/17 10:48:20;;;;;;;4.00;1.67;;;;;;;4.86;89.99;101195.31;5017537;28;20057;-76
2021/03/17 10:50:47;;;;;;;3.80;1.90;;;;;;;5.08;89.08;101194.84;5017931;28;20132;-78
2021/03/17 10:53:23;;;;;;;4.35;2.25;;;;;;;5.17;88.69;101194.63;5017398;28;20054;-77
2021/03/17 10:55:51;;;;;;;3.95;2.00;;;;;;;5.38;89.84;101190.66;5017407;28;20050;-76
2021/03/17 10:58:21;;;;;;;4.72;2.22;;;;;;;5.18;87.36;101187.56;5017508;28;20054;-78
2021/03/17 11:00:49;;;;;;;2.72;1.92;;;;;;;4.83;85.67;101171.53;5006135;28;20061;-77
2021/03/17 11:03:31;;;;;;;3.67;1.98;;;;;;;4.95;86.91;101173.94;5017402;28;20056;-77
2021/03/17 11:06:15;;;;;;;4.13;2.13;;;;;;;4.89;87.20;101182.00;5015192;28;20351;-78
2021/03/17 11:08:45;;;;;;;4.03;2.33;;;;;;;4.95;88.00;101186.31;5015726;28;20050;-77
2021/03/17 11:11:13;;;;;;;3.13;2.00;;;;;;;4.98;88.70;101178.28;5014418;28;20054;-76
2021/03/17 11:13:46;;;;;;;7.40;2.15;;;;;;;5.08;89.81;101173.66;5016893;28;20435;-76
2021/03/17 11:16:25;;;;;;;5.22;1.80;;;;;;;5.16;87.27;101180.53;5017272;28;20054;-74
2021/03/17 11:18:54;;;;;;;5.45;2.28;;;;;;;5.21;88.62;101198.09;5016948;28;20057;-79
2021/03/17 11:21:32;;;;;;;4.63;1.90;;;;;;;5.33;87.19;101178.44;5017492;28;20061;-77
2021/03/17 11:24:03;;;;;;;5.25;1.73;;;;;;;5.38;88.89;101181.81;5017210;28;20054;-77
2021/03/17 11:26:40;;;;;;;5.80;1.88;;;;;;;5.56;86.96;101184.06;5014650;28;20128;-77
2021/03/17 11:29:13;;;;;;;3.45;1.40;;;;;;;5.92;83.46;101179.66;5017029;28;20054;-75
2021/03/17 11:31:40;;;;;;;4.50;1.98;;;;;;;5.74;83.79;101166.00;5017030;28;20054;-77
2021/03/17 11:34:09;;;;;;;1.77;1.33;;;;;;;5.74;83.85;101179.22;4999476;28;20053;-76
2021/03/17 11:36:36;;;;;;;2.50;1.45;;;;;;;5.61;82.67;101178.63;5016772;28;20439;-76
2021/03/17 11:39:08;;;;;;;4.15;1.35;;;;;;;5.37;83.53;101170.38;5016531;28;20056;-76